createdAt,value
2019-03-25T00:02:32.517Z,36.40
2019-03-25T00:05:05.100Z,34.90
2019-03-25T00:07:36.079Z,36.17
2019-03-25T00:10:07.980Z,35.13
2019-03-25T00:12:38.941Z,34.53
2019-03-25T00:15:12.382Z,36.40
2019-03-25T00:17:44.351Z,35.48
2019-03-25T00:20:15.215Z,36.75
2019-03-25T00:22:46.133Z,37.38
2019-03-25T00:25:17.379Z,36.75
2019-03-25T00:27:49.070Z,40.20
2019-03-25T00:30:20.710Z,36.40
2019-03-25T00:32:51.557Z,38.05
2019-03-25T00:35:22.518Z,39.05
2019-03-25T00:37:53.387Z,35.52
2019-03-25T00:40:25.191Z,37.35
2019-03-25T00:42:56.111Z,37.38
2019-03-25T00:45:27.534Z,37.17
2019-03-25T00:47:59.274Z,36.28
2019-03-25T00:50:31.507Z,36.28
2019-03-25T00:53:03.615Z,36.85
2019-03-25T00:55:35.427Z,37.60
2019-03-25T00:58:07.661Z,36.28
2019-03-25T01:00:38.830Z,39.38
2019-03-25T01:03:10.253Z,35.90
2019-03-25T01:05:41.312Z,37.33
2019-03-25T01:08:15.021Z,35.23
2019-03-25T01:10:46.404Z,33.20
2019-03-25T01:13:17.370Z,33.63
2019-03-25T01:15:48.308Z,34.08
2019-03-25T01:18:20.502Z,33.38
2019-03-25T01:20:51.777Z,34.70
2019-03-25T01:23:23.123Z,34.53
2019-03-25T01:25:55.284Z,34.43
2019-03-25T01:28:26.125Z,35.08
2019-03-25T01:30:57.782Z,33.78
2019-03-25T01:33:29.781Z,34.03
2019-03-25T01:36:00.730Z,34.35
2019-03-25T01:38:33.198Z,32.60
2019-03-25T01:41:07.236Z,32.75
2019-03-25T01:43:38.097Z,36.77
2019-03-25T01:46:09.428Z,32.53
2019-03-25T01:48:40.288Z,33.08
2019-03-25T01:51:11.977Z,34.73
2019-03-25T01:53:43.312Z,36.77
2019-03-25T01:56:16.445Z,37.30
2019-03-25T01:58:47.634Z,36.80
2019-03-25T02:01:18.408Z,35.95
2019-03-25T02:03:49.400Z,35.25
2019-03-25T02:06:20.635Z,36.93
2019-03-25T02:08:54.104Z,37.73
2019-03-25T02:11:25.547Z,36.33
2019-03-25T02:13:56.885Z,35.43
2019-03-25T02:16:28.310Z,36.00
2019-03-25T02:18:59.295Z,36.15
2019-03-25T02:21:30.440Z,36.38
2019-03-25T02:24:01.864Z,36.38
2019-03-25T02:26:33.828Z,33.75
2019-03-25T02:29:04.668Z,38.13
2019-03-25T02:31:35.911Z,36.05
2019-03-25T02:34:06.819Z,36.03
2019-03-25T02:36:40.893Z,36.10
2019-03-25T02:39:11.813Z,35.30
2019-03-25T02:41:44.217Z,37.28
2019-03-25T02:44:17.816Z,36.35
2019-03-25T02:46:49.554Z,34.88
2019-03-25T02:49:23.788Z,37.00
2019-03-25T02:51:55.754Z,37.73
2019-03-25T02:54:27.017Z,37.67
2019-03-25T02:56:58.202Z,37.65
2019-03-25T02:59:29.456Z,37.90
2019-03-25T03:02:01.592Z,38.17
2019-03-25T03:04:33.098Z,35.05
2019-03-25T03:07:04.069Z,39.48
2019-03-25T03:09:35.172Z,39.00
2019-03-25T03:12:06.468Z,37.67
2019-03-25T03:14:37.806Z,36.60
2019-03-25T03:17:08.804Z,40.65
2019-03-25T03:19:40.288Z,40.80
2019-03-25T03:22:11.572Z,38.48
2019-03-25T03:24:45.636Z,40.20
2019-03-25T03:27:18.865Z,36.88
2019-03-25T03:29:49.866Z,38.73
2019-03-25T03:32:20.791Z,39.58
2019-03-25T03:34:52.632Z,40.95
2019-03-25T03:37:24.215Z,40.80
2019-03-25T03:39:55.397Z,40.83
2019-03-25T03:42:26.714Z,36.93
2019-03-25T03:44:59.944Z,39.35
2019-03-25T03:47:30.819Z,39.23
2019-03-25T03:50:02.471Z,38.45
2019-03-25T03:52:33.692Z,41.92
2019-03-25T03:55:05.311Z,39.98
2019-03-25T03:57:36.206Z,39.48
2019-03-25T04:00:07.858Z,37.45
2019-03-25T04:02:39.773Z,39.10
2019-03-25T04:05:11.621Z,39.48
2019-03-25T04:07:43.062Z,39.55
2019-03-25T04:10:14.069Z,39.85
2019-03-25T04:12:45.201Z,38.23
2019-03-25T04:15:19.505Z,38.30
2019-03-25T04:17:51.136Z,36.73
2019-03-25T04:20:24.456Z,37.73
2019-03-25T04:22:55.834Z,36.35
2019-03-25T04:25:26.787Z,38.58
2019-03-25T04:27:57.804Z,37.10
2019-03-25T04:30:29.014Z,36.95
2019-03-25T04:33:00.306Z,36.33
2019-03-25T04:35:31.227Z,36.83
2019-03-25T04:38:03.003Z,37.78
2019-03-25T04:40:34.744Z,37.93
2019-03-25T04:43:06.043Z,37.23
2019-03-25T04:45:37.419Z,38.55
2019-03-25T04:48:08.731Z,35.00
2019-03-25T04:50:40.558Z,36.08
2019-03-25T04:53:11.412Z,36.90
2019-03-25T04:55:43.404Z,36.42
2019-03-25T04:58:14.645Z,37.42
2019-03-25T05:00:45.643Z,36.85
2019-03-25T05:03:16.478Z,35.05
2019-03-25T05:05:48.948Z,38.15
2019-03-25T05:08:19.853Z,38.97
2019-03-25T05:10:54.367Z,38.95
2019-03-25T05:13:25.196Z,38.73
2019-03-25T05:15:57.068Z,36.93
2019-03-25T05:18:27.982Z,37.38
2019-03-25T05:20:59.281Z,40.52
2019-03-25T05:23:32.496Z,39.33
2019-03-25T05:26:03.501Z,37.50
2019-03-25T05:28:34.417Z,39.98
2019-03-25T05:31:05.366Z,38.92
2019-03-25T05:33:38.674Z,41.13
2019-03-25T05:36:09.614Z,37.23
2019-03-25T05:38:40.443Z,38.63
2019-03-25T05:41:16.094Z,37.80
2019-03-25T05:43:47.401Z,37.50
2019-03-25T05:46:18.226Z,37.20
2019-03-25T05:48:50.343Z,36.80
2019-03-25T05:51:22.070Z,37.00
2019-03-25T05:53:53.295Z,37.05
2019-03-25T05:56:24.280Z,35.17
2019-03-25T05:58:55.441Z,32.93
2019-03-25T06:01:27.049Z,34.25
2019-03-25T06:04:16.448Z,35.08
2019-03-25T06:06:48.393Z,32.05
2019-03-25T06:09:19.329Z,32.42
2019-03-25T06:11:50.482Z,30.12
2019-03-25T06:14:21.970Z,31.17
2019-03-25T06:16:53.464Z,29.87
2019-03-25T06:19:24.370Z,26.93
2019-03-25T06:21:55.501Z,26.57
2019-03-25T06:24:26.514Z,23.62
2019-03-25T06:26:57.947Z,22.55
2019-03-25T06:29:28.937Z,22.37
2019-03-25T06:32:03.923Z,22.37
2019-03-25T06:34:35.189Z,20.55
2019-03-25T06:37:06.272Z,19.60
2019-03-25T06:39:40.817Z,19.65
2019-03-25T06:42:12.014Z,20.25
2019-03-25T06:44:44.369Z,20.23
2019-03-25T06:47:15.875Z,19.42
2019-03-25T06:49:49.542Z,20.02
2019-03-25T06:52:20.771Z,19.85
2019-03-25T06:55:03.371Z,20.25
2019-03-25T06:57:38.296Z,18.85
2019-03-25T07:02:44.773Z,16.57
2019-03-25T07:05:17.177Z,16.00
2019-03-25T07:07:48.693Z,15.63
2019-03-25T07:10:47.597Z,14.98
2019-03-25T07:14:04.463Z,16.00
2019-03-25T07:16:51.603Z,16.60
2019-03-25T07:19:24.569Z,15.83
2019-03-25T07:21:58.574Z,16.48
2019-03-25T07:24:33.541Z,16.52
2019-03-25T07:27:19.895Z,15.25
2019-03-25T07:29:53.494Z,15.58
2019-03-25T07:32:24.922Z,14.20
2019-03-25T07:34:57.428Z,13.43
2019-03-25T07:37:29.406Z,13.37
2019-03-25T07:40:02.644Z,13.50
2019-03-25T07:42:34.433Z,12.75
2019-03-25T07:45:05.749Z,13.28
2019-03-25T07:47:38.353Z,12.15
2019-03-25T07:50:09.877Z,13.05
2019-03-25T07:52:57.982Z,12.07
2019-03-25T07:55:35.727Z,12.98
2019-03-25T07:58:11.976Z,11.38
2019-03-25T08:00:42.850Z,10.80
2019-03-25T08:03:14.647Z,10.65
2019-03-25T08:24:55.445Z,12.70
2019-03-25T08:27:44.525Z,11.12
2019-03-25T08:40:11.210Z,11.38
2019-03-25T08:41:42.144Z,10.82
2019-03-25T08:45:15.927Z,10.78
2019-03-25T08:48:36.096Z,10.80
2019-03-25T08:51:26.497Z,10.70
2019-03-25T08:54:08.441Z,10.95
2019-03-25T08:56:45.405Z,9.43
2019-03-25T09:00:02.019Z,9.28
2019-03-25T09:03:13.774Z,8.98
2019-03-25T09:06:03.599Z,9.03
2019-03-25T09:09:07.216Z,8.60
2019-03-25T09:11:51.953Z,9.13
2019-03-25T09:14:34.917Z,9.33
2019-03-25T09:17:36.535Z,9.28
2019-03-25T09:20:14.300Z,8.58
2019-03-25T09:23:25.955Z,7.97
2019-03-25T09:26:45.476Z,8.38
2019-03-25T09:32:29.752Z,8.60
2019-03-25T09:36:12.079Z,7.80
2019-03-25T09:38:50.891Z,8.28
2019-03-25T09:41:44.735Z,8.45
2019-03-25T09:44:21.652Z,8.40
2019-03-25T09:46:56.690Z,6.97
2019-03-25T09:49:50.956Z,6.87
2019-03-25T09:52:38.768Z,7.05
2019-03-25T09:56:03.630Z,7.50
2019-03-25T10:06:23.547Z,5.78
2019-03-25T10:23:32.324Z,5.60
2019-03-25T10:26:26.284Z,5.37
2019-03-25T10:29:09.627Z,5.30
2019-03-25T10:35:57.627Z,5.03
2019-03-25T10:39:59.870Z,5.37
2019-03-25T10:48:35.024Z,5.28
2019-03-25T10:51:30.502Z,3.75
2019-03-25T10:54:19.338Z,3.30
2019-03-25T11:00:52.185Z,3.47
2019-03-25T11:04:01.915Z,3.75
2019-03-25T11:06:45.343Z,3.20
2019-03-25T11:17:46.761Z,3.33
2019-03-25T11:24:19.832Z,2.87
2019-03-25T11:27:17.064Z,2.27
2019-03-25T11:30:13.014Z,2.50
2019-03-25T11:33:01.581Z,3.00
2019-03-25T11:36:08.026Z,2.62
2019-03-25T11:39:08.786Z,2.45
2019-03-25T11:41:54.676Z,2.35
2019-03-25T11:44:57.030Z,2.40
2019-03-25T11:47:51.047Z,2.10
2019-03-25T11:51:02.068Z,2.35
2019-03-25T11:54:12.877Z,1.52
2019-03-25T11:56:55.362Z,2.10
2019-03-25T11:59:54.121Z,2.15
2019-03-25T12:05:55.806Z,2.25
2019-03-25T12:09:13.208Z,2.62
2019-03-25T12:11:57.880Z,2.60
2019-03-25T12:15:16.991Z,2.30
2019-03-25T12:18:51.342Z,2.90
2019-03-25T12:21:23.819Z,2.37
2019-03-25T12:24:31.768Z,2.47
2019-03-25T12:27:13.757Z,2.75
2019-03-25T12:32:46.976Z,2.45
2019-03-25T12:35:45.503Z,3.10
2019-03-25T12:38:37.214Z,2.58
2019-03-25T12:41:38.349Z,2.42
2019-03-25T12:45:12.295Z,2.37
2019-03-25T12:48:29.087Z,2.70
2019-03-25T12:51:28.470Z,2.02
2019-03-25T12:54:28.126Z,2.67
2019-03-25T12:57:37.675Z,2.80
2019-03-25T13:00:32.253Z,2.50
2019-03-25T13:03:33.905Z,2.30
2019-03-25T13:06:43.989Z,2.42
2019-03-25T13:09:33.004Z,3.00
2019-03-25T13:12:16.854Z,2.25
2019-03-25T13:15:12.751Z,2.58
2019-03-25T13:17:55.622Z,2.50
2019-03-25T16:50:31.064Z,2.08
2019-03-25T16:53:31.418Z,1.55
2019-03-25T16:56:25.634Z,1.80
2019-03-25T16:59:24.406Z,2.22
2019-03-25T17:02:03.658Z,1.80
2019-03-25T17:04:59.275Z,2.17
2019-03-25T17:07:41.909Z,2.05
2019-03-25T17:10:47.349Z,2.37
2019-03-25T17:13:59.221Z,2.00
2019-03-25T17:16:47.933Z,6.97
2019-03-25T17:19:59.075Z,2.00
2019-03-25T17:22:55.892Z,2.72
2019-03-25T17:25:53.483Z,2.17
2019-03-25T17:29:26.879Z,2.12
2019-03-25T17:32:11.717Z,1.87
2019-03-25T17:34:46.944Z,3.42
2019-03-25T17:38:27.014Z,2.10
2019-03-25T17:41:10.943Z,1.95
2019-03-25T17:44:25.548Z,2.17
2019-03-25T17:47:21.805Z,2.02
2019-03-25T17:49:55.557Z,2.25
2019-03-25T17:52:32.060Z,2.20
2019-03-25T17:55:08.690Z,2.45
2019-03-25T17:57:44.572Z,2.30
2019-03-25T18:00:18.506Z,2.22
2019-03-25T18:02:54.941Z,2.02
2019-03-25T18:05:33.301Z,1.87
2019-03-25T18:08:08.456Z,2.33
2019-03-25T18:11:01.304Z,2.02
2019-03-25T18:13:40.021Z,2.55
2019-03-25T18:16:14.941Z,2.17
2019-03-25T18:18:52.473Z,2.02
2019-03-25T18:21:26.357Z,2.17
2019-03-25T18:24:07.809Z,2.10
2019-03-25T18:26:52.920Z,2.30
2019-03-25T18:30:05.282Z,2.08
2019-03-25T18:33:10.759Z,1.82
2019-03-25T18:36:24.533Z,1.65
2019-03-25T18:47:43.308Z,1.77
2019-03-25T18:51:36.057Z,1.40
2019-03-25T18:54:33.351Z,1.70
2019-03-25T18:57:33.873Z,1.60
2019-03-25T19:00:22.270Z,1.37
2019-03-25T19:03:09.327Z,2.50
2019-03-25T19:05:42.432Z,1.45
2019-03-25T19:08:19.448Z,1.85
2019-03-25T19:11:33.948Z,1.70
2019-03-25T19:15:27.735Z,1.60
2019-03-25T19:19:02.132Z,1.67
2019-03-25T19:22:33.488Z,1.50
2019-03-25T19:25:31.536Z,1.80
2019-03-25T19:28:06.585Z,1.90
2019-03-25T19:31:19.340Z,1.70
2019-03-25T19:34:11.701Z,1.45
2019-03-25T19:36:44.987Z,2.35
2019-03-25T19:39:16.687Z,2.10
2019-03-25T19:41:49.934Z,1.47
2019-03-25T19:44:21.836Z,1.77
2019-03-25T19:46:55.856Z,2.10
2019-03-25T19:49:28.734Z,2.10
2019-03-25T19:52:15.507Z,2.00
2019-03-25T19:54:47.974Z,1.95
2019-03-25T19:57:19.815Z,1.70
2019-03-25T19:59:52.007Z,1.45
2019-03-25T20:02:40.899Z,1.47
2019-03-25T20:05:23.889Z,1.65
2019-03-25T20:08:13.593Z,1.90
2019-03-25T20:10:53.918Z,1.62
2019-03-25T20:13:28.624Z,1.72
2019-03-25T20:16:20.611Z,1.65
2019-03-25T20:18:53.910Z,1.80
2019-03-25T20:21:26.494Z,1.57
2019-03-25T20:24:03.592Z,1.70
2019-03-25T20:26:52.835Z,1.50
2019-03-25T20:29:53.476Z,1.50
2019-03-25T20:32:31.825Z,1.67
2019-03-25T20:40:29.245Z,1.98
2019-03-25T21:21:45.600Z,2.47
2019-03-25T21:24:25.299Z,2.33
2019-03-25T21:30:06.477Z,2.92
2019-03-25T21:32:58.524Z,2.58
2019-03-25T21:39:04.001Z,3.40
2019-03-25T21:42:10.960Z,3.40
2019-03-25T21:44:48.820Z,3.30
2019-03-25T21:47:50.146Z,4.08
2019-03-25T21:50:38.705Z,3.37
2019-03-25T21:56:50.647Z,3.35
2019-03-25T21:59:30.100Z,3.85
2019-03-25T22:02:10.620Z,3.33
2019-03-25T22:04:49.444Z,3.37
2019-03-25T22:07:21.534Z,3.20
2019-03-25T22:10:01.385Z,3.65
2019-03-25T22:13:07.431Z,3.67
2019-03-25T22:15:44.359Z,3.02
2019-03-25T22:18:16.441Z,3.90
2019-03-25T22:20:51.314Z,2.90
2019-03-25T22:23:23.351Z,3.20
2019-03-25T22:25:56.767Z,3.27
2019-03-25T22:31:03.083Z,3.10
2019-03-25T22:33:40.085Z,3.30
2019-03-25T22:36:11.653Z,3.08
2019-03-25T22:38:43.102Z,2.70
2019-03-25T22:41:17.190Z,3.35
2019-03-25T22:43:54.958Z,3.02
2019-03-25T22:46:28.040Z,3.58
2019-03-25T22:48:59.385Z,3.87
2019-03-25T22:51:31.892Z,3.37
2019-03-25T22:54:04.727Z,3.40
2019-03-25T22:56:36.121Z,3.40
2019-03-25T22:59:07.199Z,3.42
2019-03-25T23:01:39.260Z,3.52
2019-03-25T23:04:15.878Z,3.45
2019-03-25T23:06:47.362Z,3.17
2019-03-25T23:09:18.805Z,3.42
2019-03-25T23:11:50.377Z,3.05
2019-03-25T23:18:54.294Z,2.87
2019-03-25T23:25:04.634Z,3.33
2019-03-25T23:28:18.537Z,3.83
2019-03-25T23:31:26.906Z,3.42
2019-03-25T23:34:38.299Z,3.65
2019-03-25T23:37:21.880Z,3.10
2019-03-25T23:40:04.777Z,3.17
2019-03-25T23:42:45.276Z,3.27
2019-03-25T23:46:13.255Z,4.20
2019-03-25T23:49:08.572Z,3.75
2019-03-25T23:52:01.105Z,3.08
2019-03-25T23:55:38.060Z,3.50
